Terminal Aerodrome Forecast
Issued by NWS

Home | Current Version | Previous Version | Text Only | Print | Product List | Glossary On
Versions: 1 2 3 4 5 6 7 8 9 10 11 12 13
000
FTUS41 KBTV 041729
TAFMSS
TAF
KMSS 041729Z 0418/0518 23021G32KT P6SM SCT100 SCT250
     FM042200 23018G28KT P6SM OVC080
     FM050000 24012G20KT 6SM -RA OVC040
     FM050400 27010G18KT P6SM BKN040
     FM050900 33008KT P6SM FEW040=

USA.gov is the U.S. government's official web portal to all federal, state and local government web resources and services.